sensor_id;sensor_type;location;lat;lon;timestamp;pressure;altitude;pressure_sealevel;temperature;humidity
14204;BME280;7185;51.854;6.622;2023-04-01T00:00:39;98905.06;;;12.40;100.00
14204;BME280;7185;51.854;6.622;2023-04-01T00:03:11;98900.63;;;12.40;100.00
14204;BME280;7185;51.854;6.622;2023-04-01T00:05:43;98904.41;;;12.68;100.00
14204;BME280;7185;51.854;6.622;2023-04-01T00:08:16;98896.84;;;12.62;100.00
14204;BME280;7185;51.854;6.622;2023-04-01T00:10:48;98899.59;;;12.77;100.00
14204;BME280;7185;51.854;6.622;2023-04-01T00:13:20;98896.47;;;12.86;100.00
14204;BME280;7185;51.854;6.622;2023-04-01T00:15:51;98900.75;;;12.71;100.00
14204;BME280;7185;51.854;6.622;2023-04-01T00:18:23;98896.53;;;12.68;100.00
14204;BME280;7185;51.854;6.622;2023-04-01T00:20:56;98890.63;;;12.97;100.00
14204;BME280;7185;51.854;6.622;2023-04-01T00:23:28;98892.16;;;12.35;100.00
14204;BME280;7185;51.854;6.622;2023-04-01T00:26:01;98898.78;;;12.42;100.00
14204;BME280;7185;51.854;6.622;2023-04-01T00:28:34;98896.94;;;12.61;100.00
14204;BME280;7185;51.854;6.622;2023-04-01T00:31:06;98889.69;;;12.32;100.00
14204;BME280;7185;51.854;6.622;2023-04-01T00:33:39;98883.00;;;12.42;100.00
14204;BME280;7185;51.854;6.622;2023-04-01T00:36:12;98882.34;;;12.55;100.00
14204;BME280;7185;51.854;6.622;2023-04-01T00:38:46;98882.94;;;12.60;100.00
14204;BME280;7185;51.854;6.622;2023-04-01T00:41:18;98888.53;;;12.54;100.00
14204;BME280;7185;51.854;6.622;2023-04-01T00:43:52;98884.78;;;12.42;100.00
14204;BME280;7185;51.854;6.622;2023-04-01T00:46:23;98885.91;;;12.54;100.00
14204;BME280;7185;51.854;6.622;2023-04-01T00:48:55;98878.13;;;12.68;100.00
14204;BME280;7185;51.854;6.622;2023-04-01T00:51:29;98877.78;;;12.25;100.00
14204;BME280;7185;51.854;6.622;2023-04-01T00:54:03;98878.72;;;12.24;100.00
14204;BME280;7185;51.854;6.622;2023-04-01T00:56:36;98877.47;;;12.31;100.00
14204;BME280;7185;51.854;6.622;2023-04-01T00:59:15;98880.84;;;12.17;100.00
14204;BME280;7185;51.854;6.622;2023-04-01T01:01:48;98883.13;;;12.23;100.00
14204;BME280;7185;51.854;6.622;2023-04-01T01:04:24;98881.31;;;12.41;100.00
14204;BME280;7185;51.854;6.622;2023-04-01T01:07:05;98879.63;;;12.23;100.00
14204;BME280;7185;51.854;6.622;2023-04-01T01:09:46;98896.28;;;12.23;100.00
14204;BME280;7185;51.854;6.622;2023-04-01T01:12:23;98882.69;;;12.15;100.00
14204;BME280;7185;51.854;6.622;2023-04-01T01:15:00;98876.63;;;12.31;100.00
14204;BME280;7185;51.854;6.622;2023-04-01T01:17:39;98879.72;;;12.55;100.00
14204;BME280;7185;51.854;6.622;2023-04-01T01:24:06;98879.47;;;12.59;100.00
14204;BME280;7185;51.854;6.622;2023-04-01T01:29:42;98885.41;;;12.63;100.00
14204;BME280;7185;51.854;6.622;2023-04-01T01:32:27;98870.19;;;12.36;100.00
14204;BME280;7185;51.854;6.622;2023-04-01T01:35:21;98871.69;;;12.58;100.00
14204;BME280;7185;51.854;6.622;2023-04-01T01:37:57;98876.66;;;12.47;100.00
14204;BME280;7185;51.854;6.622;2023-04-01T01:40:31;98870.72;;;12.59;100.00
14204;BME280;7185;51.854;6.622;2023-04-01T01:43:05;98880.66;;;12.70;100.00
14204;BME280;7185;51.854;6.622;2023-04-01T01:45:41;98882.09;;;12.59;100.00
14204;BME280;7185;51.854;6.622;2023-04-01T01:48:15;98877.00;;;12.72;100.00
14204;BME280;7185;51.854;6.622;2023-04-01T01:50:49;98880.59;;;12.71;100.00
14204;BME280;7185;51.854;6.622;2023-04-01T01:53:22;98879.97;;;12.66;100.00
14204;BME280;7185;51.854;6.622;2023-04-01T01:55:53;98883.97;;;12.73;100.00
14204;BME280;7185;51.854;6.622;2023-04-01T01:58:28;98887.53;;;12.72;100.00
14204;BME280;7185;51.854;6.622;2023-04-01T02:01:03;98886.22;;;12.48;100.00
14204;BME280;7185;51.854;6.622;2023-04-01T02:03:39;98884.16;;;12.21;100.00
14204;BME280;7185;51.854;6.622;2023-04-01T02:06:15;98876.94;;;12.74;100.00
14204;BME280;7185;51.854;6.622;2023-04-01T02:08:49;98891.66;;;12.44;100.00
14204;BME280;7185;51.854;6.622;2023-04-01T02:11:26;98894.59;;;12.38;100.00
14204;BME280;7185;51.854;6.622;2023-04-01T02:14:01;98896.53;;;12.68;100.00
14204;BME280;7185;51.854;6.622;2023-04-01T02:16:37;98899.75;;;12.73;100.00
14204;BME280;7185;51.854;6.622;2023-04-01T02:19:12;98898.22;;;12.69;100.00
14204;BME280;7185;51.854;6.622;2023-04-01T02:21:56;98897.19;;;12.72;100.00
14204;BME280;7185;51.854;6.622;2023-04-01T02:24:31;98898.66;;;12.78;100.00
14204;BME280;7185;51.854;6.622;2023-04-01T02:27:07;98897.28;;;12.70;100.00
14204;BME280;7185;51.854;6.622;2023-04-01T02:29:40;98906.72;;;12.41;100.00
14204;BME280;7185;51.854;6.622;2023-04-01T02:32:12;98905.53;;;12.96;100.00
14204;BME280;7185;51.854;6.622;2023-04-01T02:34:45;98903.66;;;12.98;100.00
14204;BME280;7185;51.854;6.622;2023-04-01T02:37:19;98901.88;;;12.83;100.00
14204;BME280;7185;51.854;6.622;2023-04-01T02:39:51;98905.28;;;12.85;100.00
14204;BME280;7185;51.854;6.622;2023-04-01T02:42:22;98907.53;;;12.59;100.00
14204;BME280;7185;51.854;6.622;2023-04-01T02:44:54;98915.53;;;12.73;100.00
14204;BME280;7185;51.854;6.622;2023-04-01T02:47:26;98915.03;;;12.83;100.00
14204;BME280;7185;51.854;6.622;2023-04-01T02:49:57;98907.03;;;12.68;100.00
14204;BME280;7185;51.854;6.622;2023-04-01T02:52:30;98913.75;;;12.90;100.00
14204;BME280;7185;51.854;6.622;2023-04-01T02:55:02;98917.50;;;12.86;100.00
14204;BME280;7185;51.854;6.622;2023-04-01T02:57:34;98908.25;;;12.95;100.00
14204;BME280;7185;51.854;6.622;2023-04-01T03:00:07;98918.84;;;12.77;100.00
14204;BME280;7185;51.854;6.622;2023-04-01T03:02:41;98919.34;;;12.84;100.00
14204;BME280;7185;51.854;6.622;2023-04-01T03:05:14;98919.94;;;12.73;100.00
14204;BME280;7185;51.854;6.622;2023-04-01T03:07:47;98916.25;;;12.93;100.00
14204;BME280;7185;51.854;6.622;2023-04-01T03:10:19;98917.22;;;12.74;100.00
14204;BME280;7185;51.854;6.622;2023-04-01T03:12:50;98926.38;;;12.83;100.00
14204;BME280;7185;51.854;6.622;2023-04-01T03:15:22;98931.25;;;12.91;100.00
14204;BME280;7185;51.854;6.622;2023-04-01T03:17:53;98929.44;;;12.91;100.00
14204;BME280;7185;51.854;6.622;2023-04-01T03:20:25;98927.75;;;12.74;100.00
14204;BME280;7185;51.854;6.622;2023-04-01T03:22:58;98930.13;;;12.95;100.00
14204;BME280;7185;51.854;6.622;2023-04-01T03:25:29;98936.94;;;12.99;100.00
14204;BME280;7185;51.854;6.622;2023-04-01T03:28:01;98927.94;;;12.87;100.00
14204;BME280;7185;51.854;6.622;2023-04-01T03:30:33;98937.34;;;12.75;100.00
14204;BME280;7185;51.854;6.622;2023-04-01T03:33:04;98937.56;;;12.55;100.00
14204;BME280;7185;51.854;6.622;2023-04-01T03:35:36;98935.63;;;12.74;100.00
14204;BME280;7185;51.854;6.622;2023-04-01T03:38:09;98940.84;;;12.92;100.00
14204;BME280;7185;51.854;6.622;2023-04-01T03:40:42;98942.25;;;12.82;100.00
14204;BME280;7185;51.854;6.622;2023-04-01T03:43:13;98939.63;;;12.66;100.00
14204;BME280;7185;51.854;6.622;2023-04-01T03:45:47;98943.59;;;12.73;100.00
14204;BME280;7185;51.854;6.622;2023-04-01T03:48:20;98947.75;;;12.77;100.00
14204;BME280;7185;51.854;6.622;2023-04-01T03:50:51;98948.31;;;13.00;100.00
14204;BME280;7185;51.854;6.622;2023-04-01T03:53:24;98948.88;;;12.89;100.00
14204;BME280;7185;51.854;6.622;2023-04-01T03:55:57;98953.75;;;13.13;100.00
14204;BME280;7185;51.854;6.622;2023-04-01T03:58:28;98953.88;;;12.78;100.00
14204;BME280;7185;51.854;6.622;2023-04-01T04:01:00;98958.31;;;12.93;100.00
14204;BME280;7185;51.854;6.622;2023-04-01T04:03:31;98946.59;;;12.83;100.00
14204;BME280;7185;51.854;6.622;2023-04-01T04:06:03;98955.94;;;13.04;100.00
14204;BME280;7185;51.854;6.622;2023-04-01T04:08:36;98950.16;;;12.98;100.00
14204;BME280;7185;51.854;6.622;2023-04-01T04:11:08;98955.88;;;12.72;100.00
14204;BME280;7185;51.854;6.622;2023-04-01T04:13:39;98951.34;;;12.92;100.00
14204;BME280;7185;51.854;6.622;2023-04-01T04:16:11;98961.34;;;12.69;100.00
14204;BME280;7185;51.854;6.622;2023-04-01T04:18:43;98964.94;;;13.00;100.00
14204;BME280;7185;51.854;6.622;2023-04-01T04:21:15;98963.59;;;12.93;100.00
14204;BME280;7185;51.854;6.622;2023-04-01T04:23:48;98963.19;;;12.83;100.00
14204;BME280;7185;51.854;6.622;2023-04-01T04:26:20;98960.84;;;12.79;100.00
14204;BME280;7185;51.854;6.622;2023-04-01T04:28:53;98961.69;;;12.95;100.00
14204;BME280;7185;51.854;6.622;2023-04-01T04:31:25;98968.66;;;12.96;100.00
14204;BME280;7185;51.854;6.622;2023-04-01T04:33:58;98971.53;;;12.75;100.00
14204;BME280;7185;51.854;6.622;2023-04-01T04:36:30;98965.59;;;13.04;100.00
14204;BME280;7185;51.854;6.622;2023-04-01T04:39:03;98972.91;;;12.99;100.00
14204;BME280;7185;51.854;6.622;2023-04-01T04:41:37;98974.78;;;13.13;100.00
14204;BME280;7185;51.854;6.622;2023-04-01T04:44:09;98973.66;;;12.85;100.00
14204;BME280;7185;51.854;6.622;2023-04-01T04:46:40;98980.53;;;12.54;100.00
14204;BME280;7185;51.854;6.622;2023-04-01T04:49:12;98976.75;;;12.93;100.00
14204;BME280;7185;51.854;6.622;2023-04-01T04:51:44;98975.63;;;12.97;100.00
14204;BME280;7185;51.854;6.622;2023-04-01T04:54:17;98980.06;;;13.13;100.00
14204;BME280;7185;51.854;6.622;2023-04-01T04:56:50;98988.38;;;13.21;100.00
14204;BME280;7185;51.854;6.622;2023-04-01T04:59:22;98986.84;;;13.17;99.92
14204;BME280;7185;51.854;6.622;2023-04-01T05:01:53;98990.84;;;13.24;99.62
14204;BME280;7185;51.854;6.622;2023-04-01T05:04:25;98991.59;;;13.10;100.00
14204;BME280;7185;51.854;6.622;2023-04-01T05:06:57;98988.34;;;13.05;100.00
14204;BME280;7185;51.854;6.622;2023-04-01T05:09:29;98986.00;;;13.16;99.92
14204;BME280;7185;51.854;6.622;2023-04-01T05:12:02;99001.22;;;12.78;100.00
14204;BME280;7185;51.854;6.622;2023-04-01T05:14:34;98995.41;;;12.88;100.00
14204;BME280;7185;51.854;6.622;2023-04-01T05:17:08;98998.97;;;13.03;100.00
14204;BME280;7185;51.854;6.622;2023-04-01T05:19:40;98993.97;;;13.15;99.97
14204;BME280;7185;51.854;6.622;2023-04-01T05:22:11;99001.91;;;12.81;100.00
14204;BME280;7185;51.854;6.622;2023-04-01T05:24:44;98996.47;;;12.84;100.00
14204;BME280;7185;51.854;6.622;2023-04-01T05:27:16;99004.78;;;12.77;100.00
14204;BME280;7185;51.854;6.622;2023-04-01T05:29:48;99005.25;;;12.67;100.00
14204;BME280;7185;51.854;6.622;2023-04-01T05:32:20;98997.66;;;12.79;100.00
14204;BME280;7185;51.854;6.622;2023-04-01T05:34:52;99015.63;;;12.70;100.00
14204;BME280;7185;51.854;6.622;2023-04-01T05:37:23;99012.63;;;12.61;100.00
14204;BME280;7185;51.854;6.622;2023-04-01T05:39:56;99006.84;;;12.87;100.00
14204;BME280;7185;51.854;6.622;2023-04-01T05:42:28;99016.56;;;12.69;100.00
14204;BME280;7185;51.854;6.622;2023-04-01T05:45:00;99021.22;;;12.64;100.00
14204;BME280;7185;51.854;6.622;2023-04-01T05:47:31;99015.69;;;12.69;100.00
14204;BME280;7185;51.854;6.622;2023-04-01T05:50:03;99020.31;;;12.81;100.00
14204;BME280;7185;51.854;6.622;2023-04-01T05:52:35;99017.94;;;12.77;100.00
14204;BME280;7185;51.854;6.622;2023-04-01T05:55:09;99026.66;;;12.77;100.00
14204;BME280;7185;51.854;6.622;2023-04-01T05:57:40;99020.66;;;12.57;100.00
14204;BME280;7185;51.854;6.622;2023-04-01T06:00:13;99021.00;;;12.85;100.00
14204;BME280;7185;51.854;6.622;2023-04-01T06:02:44;99014.16;;;12.98;100.00
14204;BME280;7185;51.854;6.622;2023-04-01T06:05:18;99022.97;;;12.97;100.00
14204;BME280;7185;51.854;6.622;2023-04-01T06:07:51;99015.81;;;12.83;100.00
14204;BME280;7185;51.854;6.622;2023-04-01T06:10:37;99028.47;;;12.59;100.00
14204;BME280;7185;51.854;6.622;2023-04-01T06:13:19;99032.25;;;12.71;100.00
14204;BME280;7185;51.854;6.622;2023-04-01T06:15:57;99021.97;;;13.00;100.00
14204;BME280;7185;51.854;6.622;2023-04-01T06:18:54;99034.66;;;12.91;100.00
14204;BME280;7185;51.854;6.622;2023-04-01T06:21:58;99032.25;;;13.04;100.00
14204;BME280;7185;51.854;6.622;2023-04-01T06:24:50;99042.91;;;13.01;100.00
14204;BME280;7185;51.854;6.622;2023-04-01T06:27:34;99035.22;;;13.14;100.00
14204;BME280;7185;51.854;6.622;2023-04-01T06:30:24;99040.50;;;13.30;99.15
14204;BME280;7185;51.854;6.622;2023-04-01T06:33:08;99040.63;;;12.95;100.00
14204;BME280;7185;51.854;6.622;2023-04-01T06:35:59;99044.84;;;12.98;100.00
14204;BME280;7185;51.854;6.622;2023-04-01T06:38:42;99049.44;;;12.94;100.00
14204;BME280;7185;51.854;6.622;2023-04-01T06:41:33;99050.81;;;13.01;100.00
14204;BME280;7185;51.854;6.622;2023-04-01T06:44:16;99044.03;;;12.97;100.00
14204;BME280;7185;51.854;6.622;2023-04-01T06:46:56;99053.78;;;13.11;100.00
14204;BME280;7185;51.854;6.622;2023-04-01T06:49:44;99047.53;;;13.14;100.00
14204;BME280;7185;51.854;6.622;2023-04-01T06:52:23;99052.19;;;13.08;99.69
14204;BME280;7185;51.854;6.622;2023-04-01T06:55:00;99056.69;;;13.06;100.00
14204;BME280;7185;51.854;6.622;2023-04-01T06:57:39;99064.16;;;12.98;100.00
14204;BME280;7185;51.854;6.622;2023-04-01T07:00:22;99058.31;;;13.25;99.86
14204;BME280;7185;51.854;6.622;2023-04-01T07:03:05;99065.00;;;13.15;100.00
14204;BME280;7185;51.854;6.622;2023-04-01T07:05:39;99065.09;;;13.13;100.00
14204;BME280;7185;51.854;6.622;2023-04-01T07:08:13;99063.44;;;13.28;100.00
14204;BME280;7185;51.854;6.622;2023-04-01T07:10:50;99063.75;;;13.22;100.00
14204;BME280;7185;51.854;6.622;2023-04-01T07:13:26;99063.94;;;13.19;100.00
14204;BME280;7185;51.854;6.622;2023-04-01T07:16:06;99068.72;;;13.28;100.00
14204;BME280;7185;51.854;6.622;2023-04-01T07:18:43;99067.63;;;13.15;100.00
14204;BME280;7185;51.854;6.622;2023-04-01T07:21:25;99070.13;;;13.18;100.00
14204;BME280;7185;51.854;6.622;2023-04-01T07:24:01;99082.94;;;13.24;100.00
14204;BME280;7185;51.854;6.622;2023-04-01T07:26:34;99074.16;;;13.41;100.00
14204;BME280;7185;51.854;6.622;2023-04-01T07:29:10;99082.28;;;13.36;100.00
14204;BME280;7185;51.854;6.622;2023-04-01T07:34:51;99093.81;;;13.18;100.00
14204;BME280;7185;51.854;6.622;2023-04-01T07:37:30;99101.47;;;13.22;100.00
14204;BME280;7185;51.854;6.622;2023-04-01T07:40:14;99096.25;;;13.38;100.00
14204;BME280;7185;51.854;6.622;2023-04-01T07:42:56;99101.63;;;13.53;100.00
14204;BME280;7185;51.854;6.622;2023-04-01T07:45:36;99108.00;;;13.49;100.00
14204;BME280;7185;51.854;6.622;2023-04-01T07:48:21;99110.41;;;13.36;100.00
14204;BME280;7185;51.854;6.622;2023-04-01T07:50:59;99117.75;;;13.47;100.00
14204;BME280;7185;51.854;6.622;2023-04-01T07:53:36;99114.44;;;13.59;100.00
14204;BME280;7185;51.854;6.622;2023-04-01T07:56:11;99116.16;;;13.60;100.00
14204;BME280;7185;51.854;6.622;2023-04-01T07:58:52;99127.53;;;13.27;100.00
14204;BME280;7185;51.854;6.622;2023-04-01T08:01:31;99131.38;;;13.37;100.00
14204;BME280;7185;51.854;6.622;2023-04-01T08:04:20;99135.88;;;13.35;100.00
14204;BME280;7185;51.854;6.622;2023-04-01T08:06:58;99143.56;;;13.22;100.00
14204;BME280;7185;51.854;6.622;2023-04-01T08:09:41;99142.63;;;13.41;100.00
14204;BME280;7185;51.854;6.622;2023-04-01T08:12:31;99147.75;;;13.60;100.00
14204;BME280;7185;51.854;6.622;2023-04-01T08:15:13;99151.41;;;13.74;99.78
14204;BME280;7185;51.854;6.622;2023-04-01T08:17:54;99153.28;;;13.71;100.00
14204;BME280;7185;51.854;6.622;2023-04-01T08:20:36;99157.03;;;13.67;99.68
14204;BME280;7185;51.854;6.622;2023-04-01T08:23:13;99161.69;;;13.62;99.81
14204;BME280;7185;51.854;6.622;2023-04-01T08:25:50;99169.84;;;13.58;99.37
14204;BME280;7185;51.854;6.622;2023-04-01T08:28:26;99169.63;;;13.45;99.99
14204;BME280;7185;51.854;6.622;2023-04-01T08:31:04;99174.28;;;13.39;100.00
14204;BME280;7185;51.854;6.622;2023-04-01T08:33:37;99175.91;;;13.76;100.00
14204;BME280;7185;51.854;6.622;2023-04-01T08:36:15;99177.16;;;14.00;99.85
14204;BME280;7185;51.854;6.622;2023-04-01T08:38:52;99174.97;;;14.09;98.81
14204;BME280;7185;51.854;6.622;2023-04-01T08:41:33;99178.03;;;14.17;98.00
14204;BME280;7185;51.854;6.622;2023-04-01T08:44:30;99180.56;;;14.18;97.51
14204;BME280;7185;51.854;6.622;2023-04-01T08:47:36;99194.50;;;14.37;98.09
14204;BME280;7185;51.854;6.622;2023-04-01T08:50:45;99192.94;;;14.64;97.60
14204;BME280;7185;51.854;6.622;2023-04-01T08:53:29;99195.13;;;14.88;97.90
14204;BME280;7185;51.854;6.622;2023-04-01T08:56:12;99188.31;;;14.84;95.76
14204;BME280;7185;51.854;6.622;2023-04-01T08:59:03;99190.44;;;15.08;95.62
14204;BME280;7185;51.854;6.622;2023-04-01T09:01:55;99208.28;;;15.19;96.52
14204;BME280;7185;51.854;6.622;2023-04-01T09:04:41;99209.69;;;15.10;95.20
14204;BME280;7185;51.854;6.622;2023-04-01T09:07:29;99210.28;;;15.29;95.37
14204;BME280;7185;51.854;6.622;2023-04-01T09:10:21;99212.91;;;14.85;93.38
14204;BME280;7185;51.854;6.622;2023-04-01T09:13:03;99221.03;;;14.65;96.16
14204;BME280;7185;51.854;6.622;2023-04-01T09:15:50;99216.38;;;14.85;93.83
14204;BME280;7185;51.854;6.622;2023-04-01T09:18:39;99223.91;;;14.77;94.73
14204;BME280;7185;51.854;6.622;2023-04-01T09:21:25;99223.84;;;14.46;95.22
14204;BME280;7185;51.854;6.622;2023-04-01T09:24:21;99227.69;;;14.41;96.05
14204;BME280;7185;51.854;6.622;2023-04-01T09:27:03;99239.75;;;14.45;95.80
14204;BME280;7185;51.854;6.622;2023-04-01T09:29:53;99234.25;;;14.33;96.14
14204;BME280;7185;51.854;6.622;2023-04-01T09:32:44;99242.22;;;14.48;96.47
14204;BME280;7185;51.854;6.622;2023-04-01T09:35:22;99240.44;;;14.32;96.94
14204;BME280;7185;51.854;6.622;2023-04-01T09:38:03;99244.59;;;14.37;95.82
14204;BME280;7185;51.854;6.622;2023-04-01T09:40:48;99256.41;;;14.29;95.44
14204;BME280;7185;51.854;6.622;2023-04-01T09:43:28;99262.22;;;14.20;96.85
14204;BME280;7185;51.854;6.622;2023-04-01T09:46:11;99262.38;;;14.49;95.91
14204;BME280;7185;51.854;6.622;2023-04-01T09:49:13;99268.41;;;14.19;96.95
14204;BME280;7185;51.854;6.622;2023-04-01T09:51:57;99275.84;;;14.44;96.43
14204;BME280;7185;51.854;6.622;2023-04-01T09:54:52;99276.09;;;14.40;96.46
14204;BME280;7185;51.854;6.622;2023-04-01T10:01:10;99284.81;;;14.56;96.33
14204;BME280;7185;51.854;6.622;2023-04-01T10:04:20;99287.75;;;14.68;95.59
14204;BME280;7185;51.854;6.622;2023-04-01T10:07:10;99295.72;;;14.34;96.46
14204;BME280;7185;51.854;6.622;2023-04-01T10:10:23;99295.06;;;14.62;95.84
14204;BME280;7185;51.854;6.622;2023-04-01T10:13:15;99303.13;;;14.43;96.30
14204;BME280;7185;51.854;6.622;2023-04-01T10:16:10;99300.94;;;14.68;96.31
14204;BME280;7185;51.854;6.622;2023-04-01T10:19:04;99303.13;;;14.59;95.90
14204;BME280;7185;51.854;6.622;2023-04-01T10:21:59;99307.38;;;14.62;95.43
14204;BME280;7185;51.854;6.622;2023-04-01T10:28:03;99302.56;;;14.70;95.88
14204;BME280;7185;51.854;6.622;2023-04-01T10:31:15;99310.22;;;14.75;94.23
14204;BME280;7185;51.854;6.622;2023-04-01T10:34:38;99305.94;;;14.88;95.16
14204;BME280;7185;51.854;6.622;2023-04-01T10:37:28;99311.06;;;14.75;93.73
14204;BME280;7185;51.854;6.622;2023-04-01T10:53:03;99322.44;;;15.08;92.46
14204;BME280;7185;51.854;6.622;2023-04-01T10:56:10;99323.59;;;15.18;91.06
14204;BME280;7185;51.854;6.622;2023-04-01T10:59:08;99329.47;;;15.23;91.64
14204;BME280;7185;51.854;6.622;2023-04-01T11:02:29;99328.16;;;15.30;91.58
14204;BME280;7185;51.854;6.622;2023-04-01T11:09:15;99331.09;;;15.71;90.11
14204;BME280;7185;51.854;6.622;2023-04-01T11:15:31;99339.78;;;15.73;89.59
14204;BME280;7185;51.854;6.622;2023-04-01T11:18:40;;;;15.70;
14204;BME280;7185;51.854;6.622;2023-04-01T11:21:46;99347.75;;;15.87;89.53
14204;BME280;7185;51.854;6.622;2023-04-01T11:27:41;99351.53;;;15.98;88.24
14204;BME280;7185;51.854;6.622;2023-04-01T11:30:33;99361.84;;;16.02;88.94
14204;BME280;7185;51.854;6.622;2023-04-01T11:33:16;99358.34;;;15.87;89.16
14204;BME280;7185;51.854;6.622;2023-04-01T11:35:56;99361.75;;;15.73;88.85
14204;BME280;7185;51.854;6.622;2023-04-01T11:38:49;99374.28;;;15.86;88.77
14204;BME280;7185;51.854;6.622;2023-04-01T11:41:32;99372.69;;;15.98;87.21
14204;BME280;7185;51.854;6.622;2023-04-01T11:44:16;99378.25;;;16.07;88.15
14204;BME280;7185;51.854;6.622;2023-04-01T11:47:00;99380.63;;;16.12;87.17
14204;BME280;7185;51.854;6.622;2023-04-01T11:49:44;99388.38;;;16.15;88.19
14204;BME280;7185;51.854;6.622;2023-04-01T11:53:01;99392.50;;;16.05;88.43
14204;BME280;7185;51.854;6.622;2023-04-01T11:55:41;99391.78;;;16.17;89.01
14204;BME280;7185;51.854;6.622;2023-04-01T11:58:36;99399.13;;;16.12;87.41
14204;BME280;7185;51.854;6.622;2023-04-01T12:01:20;99404.41;;;16.12;87.76
14204;BME280;7185;51.854;6.622;2023-04-01T12:04:19;99408.03;;;16.25;86.62
14204;BME280;7185;51.854;6.622;2023-04-01T12:07:00;99417.00;;;16.23;85.57
14204;BME280;7185;51.854;6.622;2023-04-01T12:09:41;99417.56;;;16.28;87.38
14204;BME280;7185;51.854;6.622;2023-04-01T12:12:23;99423.13;;;16.09;85.74
14204;BME280;7185;51.854;6.622;2023-04-01T12:15:16;99426.16;;;16.32;86.00
14204;BME280;7185;51.854;6.622;2023-04-01T12:17:54;99421.06;;;16.29;86.28
14204;BME280;7185;51.854;6.622;2023-04-01T12:20:36;99428.53;;;16.36;85.96
14204;BME280;7185;51.854;6.622;2023-04-01T12:23:23;99428.81;;;16.61;84.04
14204;BME280;7185;51.854;6.622;2023-04-01T12:26:15;99434.84;;;16.34;85.56
14204;BME280;7185;51.854;6.622;2023-04-01T12:29:09;99438.06;;;16.39;85.10
14204;BME280;7185;51.854;6.622;2023-04-01T12:31:53;99442.13;;;16.45;85.63
14204;BME280;7185;51.854;6.622;2023-04-01T12:34:44;99444.69;;;16.46;84.52
14204;BME280;7185;51.854;6.622;2023-04-01T12:37:21;99446.56;;;16.30;85.12
14204;BME280;7185;51.854;6.622;2023-04-01T12:40:09;99447.91;;;16.22;85.27
14204;BME280;7185;51.854;6.622;2023-04-01T12:43:05;99444.09;;;16.27;85.82
14204;BME280;7185;51.854;6.622;2023-04-01T12:45:48;99454.59;;;16.42;85.80
14204;BME280;7185;51.854;6.622;2023-04-01T12:52:02;99460.09;;;16.39;85.04
14204;BME280;7185;51.854;6.622;2023-04-01T12:55:02;99458.75;;;16.32;84.72
14204;BME280;7185;51.854;6.622;2023-04-01T12:58:07;99466.63;;;15.73;87.04
14204;BME280;7185;51.854;6.622;2023-04-01T13:00:59;99471.91;;;15.73;88.03
14204;BME280;7185;51.854;6.622;2023-04-01T13:03:47;99471.44;;;15.50;89.19
14204;BME280;7185;51.854;6.622;2023-04-01T13:06:44;99485.91;;;15.43;90.23
14204;BME280;7185;51.854;6.622;2023-04-01T13:09:32;99485.41;;;15.52;89.32
14204;BME280;7185;51.854;6.622;2023-04-01T13:12:29;99498.69;;;15.35;90.32
14204;BME280;7185;51.854;6.622;2023-04-01T13:15:31;99496.59;;;15.25;90.98
14204;BME280;7185;51.854;6.622;2023-04-01T13:18:19;99504.47;;;14.93;92.23
14204;BME280;7185;51.854;6.622;2023-04-01T13:21:01;99500.06;;;15.10;91.99
14204;BME280;7185;51.854;6.622;2023-04-01T13:23:45;99514.00;;;15.12;91.34
14204;BME280;7185;51.854;6.622;2023-04-01T13:26:27;99517.22;;;14.85;93.13
14204;BME280;7185;51.854;6.622;2023-04-01T13:29:06;99514.31;;;14.74;93.44
14204;BME280;7185;51.854;6.622;2023-04-01T13:31:50;99522.81;;;14.79;93.38
14204;BME280;7185;51.854;6.622;2023-04-01T13:34:35;99521.19;;;14.76;93.16
14204;BME280;7185;51.854;6.622;2023-04-01T13:37:23;99525.94;;;14.70;94.12
14204;BME280;7185;51.854;6.622;2023-04-01T13:40:18;99527.41;;;14.75;93.63
14204;BME280;7185;51.854;6.622;2023-04-01T13:42:58;99532.22;;;14.85;93.46
14204;BME280;7185;51.854;6.622;2023-04-01T13:45:39;99540.75;;;15.06;93.28
14204;BME280;7185;51.854;6.622;2023-04-01T13:48:28;99540.59;;;15.09;93.36
14204;BME280;7185;51.854;6.622;2023-04-01T13:51:11;99534.81;;;15.18;92.78
14204;BME280;7185;51.854;6.622;2023-04-01T13:54:10;99535.66;;;15.19;93.29
14204;BME280;7185;51.854;6.622;2023-04-01T13:56:50;99539.09;;;15.21;93.36
14204;BME280;7185;51.854;6.622;2023-04-01T13:59:46;99539.00;;;15.38;92.86
14204;BME280;7185;51.854;6.622;2023-04-01T14:02:52;99544.38;;;15.37;93.33
14204;BME280;7185;51.854;6.622;2023-04-01T14:11:58;99553.56;;;15.61;91.97
14204;BME280;7185;51.854;6.622;2023-04-01T14:14:46;99555.38;;;15.45;92.28
14204;BME280;7185;51.854;6.622;2023-04-01T14:17:44;99565.41;;;15.54;92.04
14204;BME280;7185;51.854;6.622;2023-04-01T14:20:29;99569.75;;;15.55;91.42
14204;BME280;7185;51.854;6.622;2023-04-01T14:23:14;99569.66;;;15.41;92.20
14204;BME280;7185;51.854;6.622;2023-04-01T14:26:00;99570.28;;;15.46;92.23
14204;BME280;7185;51.854;6.622;2023-04-01T14:28:41;99579.47;;;15.71;91.91
14204;BME280;7185;51.854;6.622;2023-04-01T14:31:31;99579.97;;;15.61;91.83
14204;BME280;7185;51.854;6.622;2023-04-01T14:34:16;99584.16;;;15.66;92.05
14204;BME280;7185;51.854;6.622;2023-04-01T14:36:59;99580.50;;;15.52;91.23
14204;BME280;7185;51.854;6.622;2023-04-01T14:39:43;99589.03;;;15.57;91.50
14204;BME280;7185;51.854;6.622;2023-04-01T14:42:24;99596.25;;;15.70;91.33
14204;BME280;7185;51.854;6.622;2023-04-01T14:45:41;99585.44;;;15.74;91.43
14204;BME280;7185;51.854;6.622;2023-04-01T14:48:25;99596.88;;;15.75;91.12
14204;BME280;7185;51.854;6.622;2023-04-01T14:51:04;99600.47;;;15.74;91.30
14204;BME280;7185;51.854;6.622;2023-04-01T14:53:43;99600.47;;;15.74;91.33
14204;BME280;7185;51.854;6.622;2023-04-01T14:56:36;99610.78;;;15.78;91.71
14204;BME280;7185;51.854;6.622;2023-04-01T14:59:14;99613.22;;;15.66;91.88
14204;BME280;7185;51.854;6.622;2023-04-01T15:01:50;99618.59;;;15.80;91.92
14204;BME280;7185;51.854;6.622;2023-04-01T15:04:46;99613.22;;;15.82;91.98
14204;BME280;7185;51.854;6.622;2023-04-01T15:07:36;99628.69;;;15.89;91.41